PIA324 OPMT-OPIS
Flight info
| Callsign | PIA324 |
|---|---|
| Flight time | 0h 41m |
| Altitude | 41000 |
| Route | MELUK J166 KUMMI Z301 BELKO |
| Aircraft | B77L/H-SDE1E2E3FGHIJ2J3J4J5M1RWXY/LB1D1 |
Departure
| Time | 2026-05-09 14:19 |
|---|---|
| Airport | Multan International Airport (OPMT) |
Arrival
| Time | 2026-05-09 15:00 |
|---|---|
| Airport | Islamabad International Airport (OPIS) |
| Time | Latitude | Longitude | Altitude | Speed | Heading |
|---|---|---|---|---|---|
| 2026-05-09 13:41 | 30.19552 | 71.42264 | 416 ft | 0 kts | 92° |
| 2026-05-09 14:02 | 30.19552 | 71.42262 | 416 ft | 1 kts | 92° |
| 2026-05-09 14:03 | 30.19552 | 71.42249 | 416 ft | 3 kts | 64° |
| 2026-05-09 14:03 | 30.19548 | 71.42241 | 406 ft | 3 kts | 19° |
| 2026-05-09 14:03 | 30.19530 | 71.42236 | 412 ft | 3 kts | 3° |
| 2026-05-09 14:03 | 30.19513 | 71.42236 | 416 ft | 1 kts | 0° |
| 2026-05-09 14:04 | 30.19512 | 71.42236 | 416 ft | 0 kts | 0° |
| 2026-05-09 14:07 | 30.19516 | 71.42236 | 416 ft | 1 kts | 359° |
| 2026-05-09 14:07 | 30.19527 | 71.42235 | 409 ft | 2 kts | 359° |
| 2026-05-09 14:07 | 30.19544 | 71.42235 | 409 ft | 3 kts | 358° |
| 2026-05-09 14:07 | 30.19567 | 71.42230 | 408 ft | 4 kts | 346° |
| 2026-05-09 14:08 | 30.19618 | 71.42217 | 412 ft | 11 kts | 352° |
| 2026-05-09 14:08 | 30.19691 | 71.42175 | 407 ft | 11 kts | 308° |
| 2026-05-09 14:08 | 30.19701 | 71.42088 | 410 ft | 12 kts | 272° |
| 2026-05-09 14:08 | 30.19704 | 71.41995 | 409 ft | 2 kts | 271° |
| 2026-05-09 14:12 | 30.19704 | 71.41984 | 409 ft | 5 kts | 271° |
| 2026-05-09 14:12 | 30.19706 | 71.41935 | 409 ft | 7 kts | 273° |
| 2026-05-09 14:12 | 30.19724 | 71.41882 | 411 ft | 9 kts | 322° |
| 2026-05-09 14:13 | 30.19815 | 71.41875 | 413 ft | 18 kts | 3° |
| 2026-05-09 14:14 | 30.20733 | 71.41934 | 407 ft | 22 kts | 3° |
| 2026-05-09 14:15 | 30.20886 | 71.41944 | 410 ft | 22 kts | 3° |
| 2026-05-09 14:15 | 30.21038 | 71.41953 | 407 ft | 22 kts | 3° |
| 2026-05-09 14:15 | 30.21191 | 71.41963 | 407 ft | 22 kts | 3° |
| 2026-05-09 14:15 | 30.21343 | 71.41975 | 409 ft | 22 kts | 4° |
| 2026-05-09 14:16 | 30.21495 | 71.41986 | 407 ft | 22 kts | 4° |
| 2026-05-09 14:16 | 30.21647 | 71.41998 | 411 ft | 22 kts | 4° |
| 2026-05-09 14:16 | 30.21799 | 71.42005 | 411 ft | 22 kts | 358° |
| 2026-05-09 14:16 | 30.21929 | 71.41968 | 409 ft | 16 kts | 15° |
| 2026-05-09 14:17 | 30.21936 | 71.42013 | 406 ft | 4 kts | 154° |
| 2026-05-09 14:17 | 30.21903 | 71.42012 | 411 ft | 5 kts | 182° |
| 2026-05-09 14:17 | 30.21887 | 71.42011 | 410 ft | 1 kts | 183° |
| 2026-05-09 14:17 | 30.21884 | 71.42011 | 407 ft | 1 kts | 183° |
| 2026-05-09 14:18 | 30.21848 | 71.42009 | 412 ft | 3 kts | 183° |
| 2026-05-09 14:18 | 30.21755 | 71.42004 | 412 ft | 33 kts | 183° |
| 2026-05-09 14:18 | 30.21275 | 71.41971 | 412 ft | 112 kts | 183° |
| 2026-05-09 14:18 | 30.20245 | 71.41901 | 627 ft | 164 kts | 183° |
| 2026-05-09 14:19 | 30.19064 | 71.41828 | 1375 ft | 175 kts | 182° |
| 2026-05-09 14:19 | 30.17862 | 71.41622 | 2079 ft | 184 kts | 205° |
| 2026-05-09 14:19 | 30.17054 | 71.40489 | 2785 ft | 192 kts | 251° |
| 2026-05-09 14:19 | 30.17015 | 71.38926 | 3469 ft | 208 kts | 282° |
| 2026-05-09 14:20 | 30.17819 | 71.37415 | 4009 ft | 232 kts | 321° |
| 2026-05-09 14:20 | 30.19279 | 71.36733 | 5107 ft | 226 kts | 348° |
| 2026-05-09 14:20 | 30.20821 | 71.36541 | 6237 ft | 221 kts | 354° |
| 2026-05-09 14:21 | 30.23997 | 71.36329 | 7848 ft | 248 kts | 355° |
| 2026-05-09 14:21 | 30.25807 | 71.36210 | 8523 ft | 268 kts | 355° |
| 2026-05-09 14:21 | 30.27669 | 71.36083 | 9275 ft | 277 kts | 355° |
| 2026-05-09 14:21 | 30.29663 | 71.35936 | 10037 ft | 297 kts | 355° |
| 2026-05-09 14:22 | 30.31795 | 71.35772 | 10788 ft | 316 kts | 354° |
| 2026-05-09 14:22 | 30.34033 | 71.35593 | 11519 ft | 326 kts | 354° |
| 2026-05-09 14:22 | 30.36316 | 71.35406 | 12262 ft | 332 kts | 354° |
| 2026-05-09 14:22 | 30.38685 | 71.35207 | 13042 ft | 349 kts | 353° |
| 2026-05-09 14:23 | 30.41165 | 71.34995 | 13810 ft | 365 kts | 353° |
| 2026-05-09 14:23 | 30.43708 | 71.34777 | 14587 ft | 375 kts | 354° |
| 2026-05-09 14:23 | 30.46343 | 71.34551 | 15500 ft | 383 kts | 354° |
| 2026-05-09 14:23 | 30.49027 | 71.34321 | 16430 ft | 389 kts | 354° |
| 2026-05-09 14:24 | 30.51750 | 71.34087 | 17381 ft | 395 kts | 355° |
| 2026-05-09 14:24 | 30.54507 | 71.33850 | 18318 ft | 399 kts | 355° |
| 2026-05-09 14:24 | 30.57294 | 71.33610 | 19189 ft | 403 kts | 355° |
| 2026-05-09 14:24 | 30.60075 | 71.33370 | 20067 ft | 407 kts | 355° |
| 2026-05-09 14:25 | 30.62907 | 71.33125 | 20981 ft | 409 kts | 355° |
| 2026-05-09 14:25 | 30.65762 | 71.32878 | 21923 ft | 412 kts | 355° |
| 2026-05-09 14:25 | 30.68627 | 71.32630 | 22888 ft | 414 kts | 355° |
| 2026-05-09 14:25 | 30.71508 | 71.32380 | 23784 ft | 415 kts | 355° |
| 2026-05-09 14:26 | 30.74389 | 71.32149 | 24639 ft | 416 kts | 355° |
| 2026-05-09 14:26 | 30.77284 | 71.31952 | 25525 ft | 417 kts | 355° |
| 2026-05-09 14:26 | 30.80184 | 71.31741 | 26421 ft | 417 kts | 355° |
| 2026-05-09 14:26 | 30.83081 | 71.31504 | 27362 ft | 417 kts | 354° |
| 2026-05-09 14:27 | 30.85971 | 71.31248 | 28326 ft | 416 kts | 353° |
| 2026-05-09 14:27 | 30.88859 | 71.30980 | 29324 ft | 415 kts | 353° |
| 2026-05-09 14:27 | 30.91737 | 71.30710 | 30195 ft | 416 kts | 353° |
| 2026-05-09 14:27 | 30.94646 | 71.30434 | 30678 ft | 424 kts | 353° |
| 2026-05-09 14:28 | 30.97637 | 71.30151 | 30732 ft | 438 kts | 353° |
| 2026-05-09 14:28 | 31.00719 | 71.29878 | 30745 ft | 450 kts | 355° |
| 2026-05-09 14:28 | 31.03896 | 71.30028 | 30737 ft | 465 kts | 4° |
| 2026-05-09 14:28 | 31.07087 | 71.30722 | 30752 ft | 478 kts | 10° |
| 2026-05-09 14:29 | 31.13399 | 71.33574 | 30741 ft | 494 kts | 22° |
| 2026-05-09 14:29 | 31.19548 | 71.37228 | 30740 ft | 496 kts | 22° |
| 2026-05-09 14:30 | 31.25655 | 71.40854 | 30741 ft | 495 kts | 22° |
| 2026-05-09 14:30 | 31.31837 | 71.44441 | 30748 ft | 495 kts | 22° |
| 2026-05-09 14:31 | 31.38004 | 71.47995 | 30753 ft | 494 kts | 22° |
| 2026-05-09 14:31 | 31.44183 | 71.51564 | 30750 ft | 493 kts | 22° |
| 2026-05-09 14:32 | 31.50338 | 71.55129 | 30758 ft | 493 kts | 22° |
| 2026-05-09 14:32 | 31.56446 | 71.58673 | 30756 ft | 493 kts | 22° |
| 2026-05-09 14:33 | 31.62603 | 71.62249 | 30763 ft | 493 kts | 22° |
| 2026-05-09 14:33 | 31.68759 | 71.65833 | 30769 ft | 493 kts | 22° |
| 2026-05-09 14:34 | 31.74922 | 71.69427 | 30768 ft | 493 kts | 22° |
| 2026-05-09 14:34 | 31.81034 | 71.72997 | 30769 ft | 494 kts | 22° |
| 2026-05-09 14:35 | 31.87187 | 71.76597 | 30770 ft | 494 kts | 22° |
| 2026-05-09 14:35 | 31.93354 | 71.80210 | 30779 ft | 494 kts | 22° |
| 2026-05-09 14:36 | 31.99482 | 71.83806 | 30774 ft | 494 kts | 22° |
| 2026-05-09 14:36 | 32.05649 | 71.87430 | 30774 ft | 494 kts | 22° |
| 2026-05-09 14:37 | 32.11819 | 71.91061 | 30778 ft | 494 kts | 22° |
| 2026-05-09 14:37 | 32.17941 | 71.94670 | 30784 ft | 495 kts | 22° |
| 2026-05-09 14:38 | 32.24111 | 71.98313 | 30789 ft | 495 kts | 22° |
| 2026-05-09 14:38 | 32.30278 | 72.01960 | 30799 ft | 495 kts | 22° |
| 2026-05-09 14:39 | 32.36393 | 72.05581 | 30804 ft | 495 kts | 22° |
| 2026-05-09 14:39 | 32.42551 | 72.09234 | 30817 ft | 495 kts | 22° |
| 2026-05-09 14:40 | 32.48577 | 72.13222 | 30823 ft | 500 kts | 30° |
| 2026-05-09 14:40 | 32.54202 | 72.18123 | 30828 ft | 502 kts | 32° |
| 2026-05-09 14:41 | 32.59794 | 72.23087 | 30830 ft | 503 kts | 32° |
| 2026-05-09 14:41 | 32.65411 | 72.28031 | 30839 ft | 503 kts | 32° |
| 2026-05-09 14:42 | 32.71012 | 72.32936 | 30832 ft | 503 kts | 31° |
| 2026-05-09 14:42 | 32.76643 | 72.37871 | 30838 ft | 503 kts | 32° |
| 2026-05-09 14:43 | 32.82270 | 72.42815 | 30837 ft | 503 kts | 32° |
| 2026-05-09 14:43 | 32.87896 | 72.47767 | 30839 ft | 503 kts | 32° |
| 2026-05-09 14:44 | 32.93525 | 72.52731 | 30847 ft | 503 kts | 32° |
| 2026-05-09 14:44 | 32.99114 | 72.57668 | 30839 ft | 503 kts | 32° |
| 2026-05-09 14:45 | 33.03938 | 72.61941 | 30839 ft | 504 kts | 33° |
| 2026-05-09 14:45 | 33.08818 | 72.68026 | 30842 ft | 503 kts | 47° |
| 2026-05-09 14:46 | 33.10906 | 72.71275 | 30825 ft | 484 kts | 48° |
| 2026-05-09 14:46 | 33.12901 | 72.74418 | 30698 ft | 470 kts | 47° |
| 2026-05-09 14:46 | 33.14891 | 72.77497 | 30203 ft | 467 kts | 47° |
| 2026-05-09 14:46 | 33.16900 | 72.80531 | 29467 ft | 465 kts | 47° |
| 2026-05-09 14:47 | 33.18923 | 72.83533 | 28667 ft | 462 kts | 47° |
| 2026-05-09 14:47 | 33.20920 | 72.86480 | 27653 ft | 446 kts | 47° |
| 2026-05-09 14:47 | 33.22832 | 72.89303 | 26590 ft | 427 kts | 48° |
| 2026-05-09 14:47 | 33.24662 | 72.92010 | 25585 ft | 411 kts | 48° |
| 2026-05-09 14:48 | 33.26427 | 72.94624 | 24606 ft | 398 kts | 49° |
| 2026-05-09 14:48 | 33.28139 | 72.97162 | 23674 ft | 387 kts | 49° |
| 2026-05-09 14:48 | 33.29806 | 72.99634 | 22635 ft | 377 kts | 49° |
| 2026-05-09 14:48 | 33.31546 | 73.01851 | 21569 ft | 365 kts | 35° |
| 2026-05-09 14:49 | 33.33762 | 73.03211 | 20547 ft | 353 kts | 14° |
| 2026-05-09 14:49 | 33.36156 | 73.03582 | 19570 ft | 342 kts | 356° |
| 2026-05-09 14:49 | 33.38435 | 73.03078 | 18630 ft | 335 kts | 340° |
| 2026-05-09 14:49 | 33.40499 | 73.01779 | 17614 ft | 329 kts | 323° |
| 2026-05-09 14:50 | 33.42094 | 72.99905 | 16599 ft | 324 kts | 309° |
| 2026-05-09 14:50 | 33.43299 | 72.97643 | 15587 ft | 321 kts | 295° |
| 2026-05-09 14:50 | 33.43876 | 72.95085 | 14608 ft | 318 kts | 280° |
| 2026-05-09 14:50 | 33.44213 | 72.92480 | 13676 ft | 315 kts | 279° |
| 2026-05-09 14:51 | 33.44543 | 72.89899 | 12645 ft | 312 kts | 279° |
| 2026-05-09 14:51 | 33.44885 | 72.87352 | 11682 ft | 306 kts | 280° |
| 2026-05-09 14:51 | 33.45231 | 72.84865 | 10832 ft | 299 kts | 280° |
| 2026-05-09 14:51 | 33.45574 | 72.82435 | 10052 ft | 292 kts | 279° |
| 2026-05-09 14:52 | 33.45907 | 72.80087 | 9355 ft | 281 kts | 279° |
| 2026-05-09 14:52 | 33.46232 | 72.77801 | 8664 ft | 281 kts | 279° |
| 2026-05-09 14:52 | 33.46560 | 72.75496 | 7984 ft | 280 kts | 279° |
| 2026-05-09 14:52 | 33.46886 | 72.73199 | 7384 ft | 277 kts | 279° |
| 2026-05-09 14:53 | 33.47207 | 72.70945 | 6819 ft | 272 kts | 279° |
| 2026-05-09 14:53 | 33.47522 | 72.68722 | 6288 ft | 268 kts | 279° |
| 2026-05-09 14:53 | 33.47829 | 72.66554 | 5859 ft | 262 kts | 279° |
| 2026-05-09 14:53 | 33.48128 | 72.64437 | 5450 ft | 253 kts | 279° |
| 2026-05-09 14:54 | 33.48413 | 72.62420 | 5053 ft | 244 kts | 279° |
| 2026-05-09 14:54 | 33.48846 | 72.60515 | 4724 ft | 231 kts | 298° |
| 2026-05-09 14:54 | 33.49927 | 72.59193 | 4314 ft | 221 kts | 330° |
| 2026-05-09 14:54 | 33.51379 | 72.58645 | 3923 ft | 219 kts | 352° |
| 2026-05-09 14:55 | 33.52901 | 72.58770 | 3711 ft | 219 kts | 13° |
| 2026-05-09 14:55 | 33.54321 | 72.59269 | 3693 ft | 206 kts | 17° |
| 2026-05-09 14:55 | 33.55660 | 72.59776 | 3681 ft | 199 kts | 17° |
| 2026-05-09 14:55 | 33.56856 | 72.60545 | 3684 ft | 197 kts | 45° |
| 2026-05-09 14:56 | 33.57474 | 72.61986 | 3687 ft | 199 kts | 83° |
| 2026-05-09 14:56 | 33.57495 | 72.63649 | 3693 ft | 201 kts | 94° |
| 2026-05-09 14:56 | 33.57407 | 72.65328 | 3690 ft | 203 kts | 95° |
| 2026-05-09 14:56 | 33.57235 | 72.67004 | 3690 ft | 202 kts | 100° |
| 2026-05-09 14:57 | 33.56987 | 72.68654 | 3679 ft | 199 kts | 101° |
| 2026-05-09 14:57 | 33.56731 | 72.70278 | 3407 ft | 194 kts | 101° |
| 2026-05-09 14:57 | 33.56491 | 72.71815 | 3169 ft | 185 kts | 101° |
| 2026-05-09 14:57 | 33.56267 | 72.73250 | 2932 ft | 164 kts | 101° |
| 2026-05-09 14:58 | 33.56069 | 72.74524 | 2712 ft | 149 kts | 101° |
| 2026-05-09 14:58 | 33.55892 | 72.75705 | 2532 ft | 142 kts | 102° |
| 2026-05-09 14:58 | 33.55698 | 72.76860 | 2423 ft | 141 kts | 102° |
| 2026-05-09 14:58 | 33.55512 | 72.78004 | 2254 ft | 139 kts | 101° |
| 2026-05-09 14:59 | 33.55343 | 72.79132 | 2082 ft | 137 kts | 101° |
| 2026-05-09 14:59 | 33.55165 | 72.80253 | 1873 ft | 135 kts | 100° |
| 2026-05-09 14:59 | 33.54997 | 72.81339 | 1769 ft | 128 kts | 100° |
| 2026-05-09 14:59 | 33.54847 | 72.82303 | 1765 ft | 112 kts | 100° |
| 2026-05-09 15:00 | 33.54782 | 72.82721 | 1766 ft | 44 kts | 100° |
| 2026-05-09 15:00 | 33.54800 | 72.83093 | 1770 ft | 30 kts | 71° |
| 2026-05-09 15:00 | 33.54831 | 72.83198 | 1770 ft | 12 kts | 72° |
| 2026-05-09 15:00 | 33.54840 | 72.83234 | 1770 ft | 0 kts | 72° |
| 2026-05-09 15:01 | 33.54855 | 72.83288 | 1773 ft | 9 kts | 72° |
| 2026-05-09 15:01 | 33.54870 | 72.83386 | 1770 ft | 10 kts | 85° |
| 2026-05-09 15:02 | 33.54881 | 72.83439 | 1773 ft | 10 kts | 58° |
| 2026-05-09 15:02 | 33.54943 | 72.83469 | 1774 ft | 10 kts | 10° |
| 2026-05-09 15:02 | 33.55012 | 72.83484 | 1773 ft | 10 kts | 10° |
| 2026-05-09 15:02 | 33.55081 | 72.83499 | 1775 ft | 10 kts | 11° |
| 2026-05-09 15:03 | 33.55150 | 72.83515 | 1776 ft | 11 kts | 11° |
| 2026-05-09 15:03 | 33.55226 | 72.83533 | 1776 ft | 11 kts | 9° |
| 2026-05-09 15:03 | 33.55306 | 72.83538 | 1776 ft | 12 kts | 341° |
| 2026-05-09 15:03 | 33.55357 | 72.83511 | 1775 ft | 5 kts | 347° |
| 2026-05-09 15:04 | 33.55394 | 72.83514 | 1776 ft | 6 kts | 12° |
| 2026-05-09 15:04 | 33.55411 | 72.83518 | 1776 ft | 0 kts | 11° |
| 2026-05-09 15:06 | 33.55413 | 72.83518 | 1776 ft | 0 kts | 11° |
| 2026-05-09 15:10 | 33.55776 | 72.83191 | 1776 ft | 0 kts | 100° |